Rydal, Pennsylvania
Current Conditions -  °F | °C
As of 5:54 AM on Sunday 21 Dec 2014 (Local Time) from KPNE Reporting Station
Overcast Overcast  
Wind Chill: 32°   Ceiling: 11000
Heat Index: 32°   Visibility: 10mi
Dew Point: 20°   Wind: 3mph
Humidity: 61%   Direction: 300°WNW
Pressure: 30.32"   Gusts: NA
Location:  40.1039°N, 75.1072°W
Report Text: KPNE 211054Z AUTO 30003KT 10SM OVC110 00/M07 A3032 RMK AO2 SLP268 T00001067 TSNO
Loading
Personal Weather Stations






























Interactive Weather Map New forecast layout! Learn more

10-Day Weather Forecast

Advertisements
Track Severe Weather on mobile